Data for 08/31/2013

Time Sea-Level Adjusted Pressure Absolute Pressure Temperature Relative Humidity Dew Point   
(mb) (inHg) (mb) (inHg) (C) (F) (%) (C) (F)
00:05 1022 30.18 851 25.13 18.1 64.6 39 3.9 39.1
00:10 1022 30.18 851 25.13 18.2 64.8 38 4 39.2
00:15 1022 30.18 851 25.13 18.3 64.9 37 3.6 38.5
00:20 1022 30.18 851 25.13 18.5 65.2 38 3.9 38.9
00:25 1022 30.18 851 25.13 18.3 65 38 4 39.2
00:30 1022 30.18 852 25.16 18.1 64.6 40 4.3 39.7
00:35 1022 30.18 852 25.16 17.8 64.1 39 3.9 39
00:40 1023 30.21 852 25.16 17.7 63.9 40 4.2 39.5
00:45 1023 30.21 852 25.16 17.6 63.8 41 4.3 39.7
00:50 1023 30.21 852 25.16 17.4 63.4 41 4.3 39.7
00:55 1023 30.21 852 25.16 17.3 63.1 42 4.2 39.6
01:00 1023 30.21 852 25.16 17.2 62.9 42 4.4 39.9
01:05 1023 30.21 852 25.16 17.1 62.7 43 4.4 39.9
01:10 1023 30.21 852 25.16 16.9 62.4 43 4.4 40
01:15 1023 30.21 852 25.16 16.6 61.9 45 4.8 40.6
01:20 1023 30.21 852 25.16 16.3 61.3 44 4.2 39.6
01:25 1023 30.21 852 25.16 16.2 61.2 45 4.5 40
01:30 1023 30.21 852 25.16 16.1 61.1 45 4.3 39.7
01:35 1023 30.21 852 25.16 16 60.9 45 4.3 39.8
01:40 1023 30.21 852 25.16 15.9 60.6 46 4.3 39.8
01:45 1023 30.21 852 25.16 15.7 60.3 51 5.6 42.1
01:50 1023 30.21 852 25.16 15.5 59.9 48 4.7 40.4
01:55 1023 30.21 852 25.16 15.1 59.1 50 4.7 40.5
02:00 1023 30.21 852 25.16 14.8 58.6 50 4.5 40.1
02:05 1023 30.21 852 25.16 15 58.9 50 4.6 40.3
02:10 1023 30.21 852 25.16 15.2 59.3 49 4.6 40.2
02:15 1023 30.21 852 25.16 15.2 59.4 49 4.6 40.3
02:20 1023 30.21 852 25.16 15.2 59.4 48 4.4 40
02:25 1023 30.21 852 25.16 15.2 59.4 48 4.5 40.1
02:30 1023 30.21 852 25.16 15.1 59.2 50 4.8 40.6
02:35 1023 30.21 852 25.16 14.9 58.8 49 4.5 40.1
02:40 1023 30.21 852 25.16 14.8 58.7 50 4.6 40.3
02:45 1023 30.21 852 25.16 14.8 58.6 51 4.8 40.6
02:50 1023 30.21 852 25.16 14.8 58.6 50 4.6 40.3
02:55 1023 30.21 852 25.16 14.8 58.6 50 4.5 40.1
03:00 1023 30.21 852 25.16 14.7 58.4 50 4.6 40.2
03:05 1023 30.21 852 25.16 14.6 58.3 51 4.6 40.3
03:10 1023 30.21 852 25.16 14.4 57.9 52 4.7 40.5
03:15 1023 30.21 852 25.16 14.3 57.8 51 4.5 40.2
03:20 1023 30.21 852 25.16 14.3 57.7 53 4.8 40.6
03:25 1023 30.21 852 25.16 14.1 57.4 53 4.6 40.4
03:30 1023 30.21 852 25.16 14 57.2 53 4.6 40.3
03:35 1023 30.21 852 25.16 13.9 57 52 4.4 39.9
03:40 1023 30.21 852 25.16 14.1 57.3 52 4.3 39.8
03:45 1023 30.21 852 25.16 14.2 57.5 52 4.6 40.3
03:50 1023 30.21 852 25.16 14 57.2 55 5.1 41.1
03:55 1023 30.21 852 25.16 13.4 56 57 5 41
04:00 1023 30.21 852 25.16 13.2 55.7 56 4.8 40.6
04:05 1023 30.21 852 25.16 13.2 55.8 56 4.7 40.5
04:10 1023 30.21 852 25.16 13.4 56.1 55 4.7 40.4
04:15 1023 30.21 852 25.16 13.5 56.2 54 4.4 40
04:20 1023 30.21 852 25.16 13.6 56.4 54 4.4 39.9
04:25 1023 30.21 852 25.16 13.7 56.7 53 4.3 39.7
04:30 1023 30.21 853 25.19 13.7 56.6 53 4.3 39.7
04:35 1023 30.21 853 25.19 13.5 56.3 55 4.6 40.2
04:40 1023 30.21 853 25.19 13.3 55.9 54 4.3 39.7
04:45 1023 30.21 853 25.19 13.2 55.7 56 4.7 40.4
04:50 1024 30.24 853 25.19 12.7 54.9 58 4.7 40.4
04:55 1024 30.24 853 25.19 12.6 54.7 57 4.3 39.7
05:00 1024 30.24 853 25.19 12.7 54.8 57 4.4 40
05:05 1024 30.24 853 25.19 12.5 54.6 58 4.6 40.4
05:10 1024 30.24 853 25.19 12.3 54.2 58 4.3 39.7
05:15 1024 30.24 853 25.19 12.5 54.6 57 4.3 39.7
05:20 1024 30.24 853 25.19 12.6 54.7 56 4.2 39.6
05:25 1024 30.24 853 25.19 12.7 54.8 56 4.2 39.6
05:30 1024 30.24 853 25.19 12.9 55.1 55 4 39.3
05:35 1024 30.24 853 25.19 13.1 55.6 54 4.1 39.4
05:40 1024 30.24 853 25.19 13.3 55.9 53 4 39.2
05:45 1024 30.24 853 25.19 13.3 56 53 4.1 39.4
05:50 1024 30.24 853 25.19 13.2 55.7 54 4.2 39.5
05:55 1024 30.24 853 25.19 13 55.4 57 4.6 40.3
06:00 1024 30.24 853 25.19 12.3 54.1 59 4.6 40.3
06:05 1024 30.24 853 25.19 12.3 54.1 58 4.3 39.8
06:10 1024 30.24 853 25.19 12.3 54.2 59 4.5 40
06:15 1024 30.24 853 25.19 12.2 53.9 59 4.3 39.8
06:20 1024 30.24 853 25.19 12.2 54 57 4.1 39.4
06:25 1024 30.24 853 25.19 12.6 54.6 56 4 39.3
06:30 1024 30.24 853 25.19 12.9 55.3 55 4.1 39.4
06:35 1024 30.24 853 25.19 13.3 55.9 53 4 39.1
06:40 1024 30.24 853 25.19 13.7 56.6 52 4.2 39.5
06:45 1024 30.24 853 25.19 14.1 57.4 51 4.2 39.6
06:50 1024 30.24 853 25.19 14.3 57.8 51 4.5 40
06:55 1024 30.24 853 25.19 14.6 58.2 51 4.6 40.3
07:00 1024 30.24 853 25.19 14.5 58.1 53 5.2 41.3
07:05 1024 30.24 853 25.19 14 57.2 53 4.7 40.5
07:10 1024 30.24 853 25.19 14.2 57.5 53 4.8 40.6
07:15 1024 30.24 853 25.19 14.2 57.5 53 4.8 40.7
07:20 1024 30.24 853 25.19 14.7 58.4 51 4.8 40.6
07:25 1024 30.24 853 25.19 15.3 59.5 49 4.9 40.7
07:30 1024 30.24 853 25.19 15.3 59.5 49 4.6 40.4
07:35 1024 30.24 853 25.19 15.2 59.3 49 4.7 40.5
07:40 1024 30.24 853 25.19 15.6 60 47 4.5 40
07:45 1024 30.24 853 25.19 15.9 60.5 47 4.6 40.2
07:50 1024 30.24 853 25.19 16.7 62 44 4.5 40.1
07:55 1024 30.24 853 25.19 17.1 62.8 43 4.5 40.2
08:00 1024 30.24 853 25.19 17.9 64.2 40 4.3 39.8
08:05 1024 30.24 853 25.19 17.6 63.7 42 4.9 40.7
08:10 1024 30.24 853 25.19 17.9 64.2 40 4.3 39.7
08:15 1024 30.24 853 25.19 18.7 65.7 38 4.4 39.8
08:20 1024 30.24 853 25.19 19.5 67.1 36 4.2 39.5
08:25 1024 30.24 853 25.19 20 68 35 4.2 39.5
08:30 1024 30.24 853 25.19 20.5 68.9 34 4.3 39.7
08:35 1024 30.24 853 25.19 20.2 68.4 33 3.4 38.2
08:40 1024 30.24 853 25.19 20.2 68.3 33 3.6 38.5
08:45 1024 30.24 853 25.19 20.5 69 32 3.5 38.2
08:50 1024 30.24 853 25.19 21.3 70.3 31 3.7 38.6
08:55 1024 30.24 853 25.19 21.6 70.9 30 3.7 38.6
09:00 1024 30.24 853 25.19 21.9 71.3 31 4.1 39.5
09:05 1024 30.24 853 25.19 21.8 71.3 30 3.8 38.8
09:10 1024 30.24 853 25.19 21.6 71 30 3.7 38.7
09:15 1024 30.24 853 25.19 22 71.7 30 4 39.2
09:20 1024 30.24 853 25.19 22.4 72.3 29 3.9 39
09:25 1024 30.24 853 25.19 22.1 71.7 29 3.5 38.4
09:30 1024 30.24 853 25.19 22.3 72.2 29 3.6 38.6
09:35 1024 30.24 853 25.19 22.6 72.7 29 3.7 38.7
09:40 1024 30.24 853 25.19 22.8 73 28 3.7 38.6
09:45 1024 30.24 853 25.19 23.4 74.2 28 4.1 39.3
09:50 1024 30.24 853 25.19 23.3 74 28 4.2 39.5
09:55 1024 30.24 853 25.19 22.9 73.2 28 3.7 38.7
10:00 1024 30.24 853 25.19 23.3 74 28 3.8 38.8
10:05 1024 30.24 853 25.19 23.2 73.8 27 3.5 38.3
10:10 1024 30.24 853 25.19 23.2 73.7 28 3.9 39
10:15 1024 30.24 853 25.19 23.9 75.1 28 4.6 40.2
10:20 1023 30.21 853 25.19 24.5 76.2 27 4.4 39.8
10:25 1023 30.21 853 25.19 24.4 75.9 26 4 39.2
10:30 1023 30.21 853 25.19 23.8 74.8 28 4.3 39.8
10:35 1023 30.21 853 25.19 23.9 75.1 27 3.9 39.1
10:40 1023 30.21 852 25.16 24 75.1 27 4.2 39.6
10:45 1023 30.21 852 25.16 24.6 76.2 26 4.2 39.5
10:50 1023 30.21 852 25.16 24.3 75.7 27 4.2 39.6
10:55 1023 30.21 852 25.16 23.3 73.9 29 4.5 40.2
11:00 1023 30.21 852 25.16 23.6 74.6 27 3.7 38.6
11:05 1023 30.21 852 25.16 24.2 75.6 24 2.4 36.4
11:10 1023 30.21 852 25.16 24.7 76.4 24 3.2 37.8
11:15 1023 30.21 852 25.16 25 76.9 24 3.4 38.2
11:20 1023 30.21 852 25.16 24.8 76.6 24 2.8 37.1
11:25 1023 30.21 852 25.16 25.2 77.4 24 3.2 37.8
11:30 1023 30.21 852 25.16 25.4 77.6 24 3.7 38.7
11:35 1023 30.21 852 25.16 25.3 77.6 24 3.6 38.4
11:40 1023 30.21 852 25.16 25.1 77.2 23 2.8 37.1
11:45 1023 30.21 852 25.16 25.2 77.4 23 3 37.3
11:50 1023 30.21 852 25.16 25.2 77.3 23 2.8 37
11:55 1023 30.21 852 25.16 24.6 76.3 24 2.7 36.8
12:00 1023 30.21 852 25.16 24.2 75.5 26 3.6 38.5
12:05 1023 30.21 852 25.16 24.2 75.5 25 2.9 37.3
12:10 1023 30.21 852 25.16 24.5 76 24 2.5 36.6
12:15 1023 30.21 852 25.16 24.4 76 23 2.2 36
12:20 1023 30.21 852 25.16 24.9 76.9 22 2.3 36.1
12:25 1023 30.21 852 25.16 25.8 78.5 22 2.7 36.9
12:30 1023 30.21 852 25.16 25.8 78.4 22 2.9 37.2
12:35 1023 30.21 852 25.16 25.3 77.6 23 2.8 37.1
12:40 1023 30.21 852 25.16 25.1 77.3 22 2.2 36
12:45 1023 30.21 852 25.16 25.2 77.4 22 2.4 36.4
12:50 1023 30.21 852 25.16 25.3 77.6 23 3 37.4
12:55 1023 30.21 852 25.16 25.3 77.6 23 2.9 37.3
13:00 1023 30.21 852 25.16 25.6 78.2 22 2.5 36.5
13:05 1023 30.21 852 25.16 25.7 78.3 21 1.9 35.3
13:10 1023 30.21 852 25.16 25.2 77.4 21 1.8 35.2
13:15 1023 30.21 852 25.16 25.9 78.6 21 2.4 36.2
13:20 1023 30.21 852 25.16 26.2 79.1 21 2.5 36.5
13:25 1023 30.21 852 25.16 26.5 79.7 21 2.4 36.3
13:30 1023 30.21 852 25.16 26.2 79.1 20 1.4 34.6
13:35 1023 30.21 852 25.16 26.2 79.1 21 2.1 35.8
13:40 1023 30.21 852 25.16 26 78.8 20 1.4 34.5
13:45 1023 30.21 852 25.16 25.4 77.8 20 1.3 34.4
13:50 1022 30.18 852 25.16 25.1 77.1 20 0.6 33.1
13:55 1022 30.18 852 25.16 25.3 77.6 20 1.2 34.2
14:00 1022 30.18 851 25.13 25.9 78.7 20 1.4 34.6
14:05 1022 30.18 851 25.13 26.2 79.2 19 0.9 33.6
14:10 1022 30.18 851 25.13 26.2 79.2 20 1.5 34.8
14:15 1022 30.18 851 25.13 26.6 79.9 18 0.9 33.6
14:20 1022 30.18 851 25.13 26.3 79.3 18 0.4 32.7
14:25 1022 30.18 851 25.13 26.5 79.6 19 1 33.9
14:30 1022 30.18 851 25.13 27.2 80.9 17 0.1 32.2
14:35 1022 30.18 851 25.13 26.7 80 18 0.7 33.3
14:40 1022 30.18 851 25.13 26.2 79.2 19 0.7 33.2
14:45 1022 30.18 851 25.13 26.3 79.3 18 0.4 32.7
14:50 1022 30.18 851 25.13 26 78.9 19 0.9 33.7
14:55 1022 30.18 851 25.13 26.2 79.2 19 1 33.9
15:00 1022 30.18 851 25.13 25.9 78.6 19 0.9 33.6
15:05 1022 30.18 851 25.13 26.7 80 18 0.5 32.9
15:10 1022 30.18 851 25.13 25.9 78.6 19 0.8 33.5
15:15 1022 30.18 851 25.13 25.9 78.5 19 0.5 32.9
15:20 1022 30.18 851 25.13 25.8 78.4 19 0.6 33.2
15:25 1022 30.18 851 25.13 26.5 79.7 18 0.5 32.8
15:30 1022 30.18 851 25.13 27 80.6 17 0.4 32.7
15:35 1021 30.15 851 25.13 26.7 80 17 0.1 32.3
15:40 1021 30.15 851 25.13 25.8 78.5 18 0.1 32.2
15:45 1021 30.15 851 25.13 26.3 79.3 18 0.7 33.2
15:50 1021 30.15 851 25.13 27 80.7 17 -0 31.9
15:55 1021 30.15 851 25.13 26.9 80.5 17 -0.2 31.7
16:00 1021 30.15 850 25.1 26.4 79.5 18 0.3 32.5
16:05 1021 30.15 850 25.1 25.9 78.6 18 -0.2 31.6
16:10 1021 30.15 850 25.1 25.7 78.3 19 0.7 33.2
16:15 1021 30.15 850 25.1 26.4 79.6 17 0.1 32.1
16:20 1021 30.15 850 25.1 27.4 81.3 16 0 32
16:25 1021 30.15 850 25.1 27.4 81.3 15 -0.9 30.3
16:30 1021 30.15 850 25.1 26.8 80.2 17 -0.3 31.4
16:35 1021 30.15 850 25.1 27 80.5 17 0.2 32.3
16:40 1021 30.15 850 25.1 26.2 79.2 17 -0.3 31.5
16:45 1021 30.15 850 25.1 26.4 79.6 17 -0.5 31.2
16:50 1021 30.15 850 25.1 27.1 80.7 15 -1.5 29.3
16:55 1021 30.15 850 25.1 26.9 80.4 17 0.2 32.4
17:00 1021 30.15 850 25.1 27.2 81 16 -0.9 30.5
17:05 1021 30.15 850 25.1 27.3 81.1 16 -0.3 31.5
17:10 1021 30.15 850 25.1 27.1 80.8 15 -1.4 29.6
17:15 1021 30.15 850 25.1 27 80.7 16 -0.6 30.9
17:20 1021 30.15 850 25.1 27 80.7 15 -1.1 30
17:25 1021 30.15 850 25.1 26.3 79.3 17 -0.5 31.1
17:30 1021 30.15 850 25.1 25.7 78.3 18 -0.4 31.3
17:35 1021 30.15 850 25.1 25.8 78.5 18 -0.1 31.8
17:40 1021 30.15 850 25.1 26 78.7 16 -1.2 29.9
17:45 1021 30.15 850 25.1 25.8 78.4 17 -0.6 30.9
17:50 1021 30.15 850 25.1 25.8 78.5 18 -0 32
17:55 1021 30.15 850 25.1 25.8 78.4 18 -0.2 31.7
18:00 1021 30.15 850 25.1 25.8 78.4 17 -0.7 30.8
18:05 1021 30.15 850 25.1 25.5 77.8 16 -1.6 29.2
18:10 1021 30.15 850 25.1 25.4 77.7 17 -1 30.2
18:15 1021 30.15 850 25.1 25.3 77.6 18 -0.2 31.7
18:20 1021 30.15 850 25.1 25.3 77.5 18 -0.7 30.8
18:25 1021 30.15 850 25.1 25.2 77.4 17 -1 30.3
18:30 1021 30.15 850 25.1 25.1 77.3 20 0.6 33
18:35 1021 30.15 850 25.1 25.1 77.2 20 0.7 33.2
18:40 1021 30.15 850 25.1 25.1 77.1 19 0 32
18:45 1021 30.15 850 25.1 25 77 19 0.1 32.1
18:50 1021 30.15 850 25.1 24.8 76.7 20 0.7 33.3
18:55 1021 30.15 850 25.1 24.5 76 26 3.7 38.7
19:00 1021 30.15 850 25.1 24 75.2 26 3.8 38.8
19:05 1021 30.15 850 25.1 23.5 74.4 28 4.3 39.7
19:10 1021 30.15 850 25.1 22.7 72.9 32 5.5 41.9
19:15 1021 30.15 850 25.1 22.1 71.9 34 5.7 42.2
19:20 1021 30.15 850 25.1 21.9 71.5 33 4.9 40.9
19:25 1021 30.15 850 25.1 21.3 70.4 34 4.9 40.8
19:30 1021 30.15 850 25.1 20.5 68.9 38 6 42.8
19:35 1021 30.15 850 25.1 19.5 67.2 36 4.3 39.7
19:40 1021 30.15 850 25.1 19.5 67.2 33 2.9 37.2
19:45 1021 30.15 850 25.1 19.4 66.9 37 4.3 39.8
19:50 1021 30.15 851 25.13 19.2 66.5 31 1.8 35.2
19:55 1021 30.15 851 25.13 19.7 67.4 28 0.7 33.3
20:00 1021 30.15 851 25.13 20 68 27 0.6 33.1
20:05 1021 30.15 851 25.13 20.1 68.2 26 0.3 32.5
20:10 1021 30.15 850 25.1 20.2 68.3 25 -0.2 31.7
20:15 1021 30.15 851 25.13 20.2 68.4 26 0.3 32.5
20:20 1021 30.15 851 25.13 19.9 67.9 26 0.2 32.4
20:25 1021 30.15 851 25.13 19.9 67.8 25 -0.7 30.7
20:30 1021 30.15 851 25.13 20.3 68.5 22 -1.7 28.9
20:35 1021 30.15 851 25.13 20.6 69.1 22 -1.6 29.2
20:40 1021 30.15 851 25.13 20.9 69.7 21 -1.8 28.7
20:45 1021 30.15 851 25.13 21 69.8 22 -1.4 29.4
20:50 1021 30.15 851 25.13 20.8 69.5 23 -1.1 30
20:55 1021 30.15 851 25.13 20.9 69.7 24 -0.5 31.1
21:00 1021 30.15 850 25.1 21.1 69.9 24 -0.2 31.7
21:05 1021 30.15 850 25.1 21 69.9 24 -0.1 31.9
21:10 1021 30.15 851 25.13 20.8 69.5 25 0.2 32.4
21:15 1021 30.15 850 25.1 20.7 69.2 25 0.4 32.7
21:20 1021 30.15 850 25.1 20.5 69 26 0.5 33
21:25 1021 30.15 850 25.1 20.5 68.9 26 0.7 33.2
21:30 1021 30.15 850 25.1 20.6 69 26 0.8 33.4
21:35 1021 30.15 851 25.13 20.4 68.6 27 1 33.8
21:40 1021 30.15 850 25.1 20.3 68.5 27 1 33.8
21:45 1021 30.15 851 25.13 20.1 68.2 28 1.1 34
21:50 1021 30.15 850 25.1 20 68 28 1.1 33.9
21:55 1021 30.15 850 25.1 20 68 28 1.2 34.2
22:00 1021 30.15 850 25.1 19.9 67.8 28 1.3 34.3
22:05 1021 30.15 850 25.1 19.8 67.6 29 1.3 34.4
22:10 1021 30.15 850 25.1 19.6 67.3 29 1.4 34.5
22:15 1021 30.15 850 25.1 19.6 67.3 29 1.2 34.2
22:20 1021 30.15 850 25.1 19.6 67.2 29 1.3 34.4
22:25 1021 30.15 850 25.1 19.6 67.2 29 1.3 34.3
22:30 1021 30.15 851 25.13 19.5 67.2 29 1.3 34.4
22:35 1021 30.15 851 25.13 19.5 67 29 1.3 34.4
22:40 1021 30.15 851 25.13 19.3 66.8 30 1.4 34.5
22:45 1021 30.15 851 25.13 19.2 66.6 30 1.2 34.2
22:50 1021 30.15 850 25.1 19.2 66.6 30 1.3 34.3
22:55 1021 30.15 851 25.13 19.2 66.5 30 1.2 34.1
23:00 1021 30.15 850 25.1 19.2 66.5 30 1.2 34.1
23:05 1021 30.15 850 25.1 19.1 66.5 30 1.3 34.4
23:10 1021 30.15 851 25.13 19 66.2 30 1.3 34.4
23:15 1021 30.15 851 25.13 18.8 65.9 31 1.3 34.3
23:20 1021 30.15 850 25.1 18.7 65.6 31 1.4 34.4
23:25 1021 30.15 850 25.1 18.6 65.4 31 1.3 34.4
23:30 1021 30.15 850 25.1 18.5 65.3 31 1.4 34.5
23:35 1021 30.15 850 25.1 18.3 65 32 1.4 34.5
23:40 1021 30.15 850 25.1 18.2 64.7 32 1.4 34.5
23:45 1021 30.15 851 25.13 18.1 64.6 32 1.4 34.4
23:50 1021 30.15 851 25.13 18 64.4 33 1.4 34.6
23:55 1021 30.15 851 25.13 17.8 64.1 33 1.5 34.8
24:00 1021 30.15 851 25.13 17.6 63.8 33 1.4 34.5